Dera Bugti Weather



Dera Bugti's Current Weather

Temprature 39.19o clear sky

clear sky

Rain: 0 %

Min Temprature39.19o
Max Temprature39.19o
Humidity31
Wind Speed5.23 m/h
Sun Rise05:51:09
Sun Set19:05:31
Current Time: 13-Aug-2020 19:07:22
Lat/Lon: 29.03, 69.15




Dera Bugti's Geo Location



Dera Bugti's Weather Forecast

Time Overall Temp Min Temp Max Temp Humidity Wind Speed Rain
13-Aug-2020 (Thu)
20:00:00 few clouds 40.110 38.680 40.110 29 2.8 m/h 0 %
23:00:00 few clouds 36.960 35.710 36.960 38 5.5 m/h 0 %
14-Aug-2020 (Fri)
02:00:00 clear sky 33.430 32.880 33.430 54 2.88 m/h 0 %
05:00:00 clear sky 31.350 31.270 31.350 61 1.95 m/h 0 %
08:00:00 clear sky 31.920 31.920 31.920 58 2.06 m/h 0 %
11:00:00 clear sky 35.810 35.810 35.810 43 3.23 m/h 0 %
14:00:00 clear sky 38.130 38.130 38.130 36 4.07 m/h 0 %
17:00:00 clear sky 39.020 39.020 39.020 32 4.77 m/h 0 %
20:00:00 clear sky 37.270 37.270 37.270 36 6.52 m/h 0 %
23:00:00 clear sky 34.830 34.830 34.830 42 5.95 m/h 0 %
15-Aug-2020 (Sat)
02:00:00 clear sky 32.940 32.940 32.940 50 4.13 m/h 0 %
05:00:00 clear sky 30.990 30.990 30.990 61 3.78 m/h 0 %
08:00:00 clear sky 31.980 31.980 31.980 56 3.06 m/h 0 %
11:00:00 clear sky 35.750 35.750 35.750 40 4.38 m/h 0 %
14:00:00 clear sky 38.600 38.600 38.600 33 4.65 m/h 0 %
17:00:00 clear sky 39.960 39.960 39.960 26 3.41 m/h 0 %
20:00:00 clear sky 38.470 38.470 38.470 29 4.87 m/h 0 %
23:00:00 clear sky 35.210 35.210 35.210 41 5.65 m/h 0 %
16-Aug-2020 (Sun)
02:00:00 clear sky 32.510 32.510 32.510 56 4.04 m/h 0 %
05:00:00 clear sky 31.500 31.500 31.500 58 1.04 m/h 0 %
08:00:00 few clouds 32.070 32.070 32.070 53 1.33 m/h 0 %
11:00:00 clear sky 36.620 36.620 36.620 38 3.02 m/h 0 %
14:00:00 clear sky 39.430 39.430 39.430 31 4.47 m/h 0 %
17:00:00 clear sky 40.190 40.190 40.190 28 4.68 m/h 0 %
20:00:00 few clouds 38.370 38.370 38.370 32 6.7 m/h 0 %
23:00:00 broken clouds 35.210 35.210 35.210 44 5.97 m/h 0 %
17-Aug-2020 (Mon)
02:00:00 overcast clouds 32.480 32.480 32.480 56 3.27 m/h 0 %
05:00:00 overcast clouds 31.370 31.370 31.370 58 1.73 m/h 0 %
08:00:00 overcast clouds 31.770 31.770 31.770 54 1.92 m/h 0 %
11:00:00 overcast clouds 34.530 34.530 34.530 45 3.65 m/h 0 %
14:00:00 scattered clouds 38.200 38.200 38.200 35 4.67 m/h 0 %
17:00:00 scattered clouds 39.520 39.520 39.520 31 5.76 m/h 0 %
20:00:00 broken clouds 35.190 35.190 35.190 42 7.5 m/h 0 %
23:00:00 broken clouds 33.010 33.010 33.010 48 5.04 m/h 0 %
18-Aug-2020 (Tue)
02:00:00 clear sky 31.720 31.720 31.720 53 2.63 m/h 0 %
05:00:00 few clouds 30.930 30.930 30.930 56 1.7 m/h 0 %
08:00:00 light rain 32.000 32.000 32.000 51 1.41 m/h 20 %
11:00:00 scattered clouds 35.570 35.570 35.570 41 3.75 m/h 0 %
14:00:00 overcast clouds 38.030 38.030 38.030 35 4.42 m/h 0 %
17:00:00 broken clouds 38.240 38.240 38.240 34 4.23 m/h 0 %

Famous Cities (60)